Cromwell, Indiana
Current Conditions -  °F | °C
As of 2:53 PM on Sunday 23 Nov 2014 (Local Time) from KGSH Reporting Station
Light Rain Light Rain  
Wind Chill: 52°   Ceiling: 2100
Heat Index: 52°   Visibility: 6mi
Dew Point: 48°   Wind: 8mph
Humidity: 86%   Direction: 120°ESE
Pressure: 29.61"   Gusts: NA
Location:  41.4°N, 85.62°W
Report Text: KGSH 231953Z AUTO 12007KT 6SM -RA BR OVC021 11/09 A2961 RMK AO2 RAB1858 SLP029 P0005 T01110089
Loading
Personal Weather Stations






























Interactive Weather Map New forecast layout! Learn more

10-Day Weather Forecast

Advertisements
Track Severe Weather on mobile